sensor_id;sensor_type;location;lat;lon;timestamp;temperature;humidity
21318;DHT22;10818;50.830;6.524;2023-04-23T00:04:27;11.40;99.90
21318;DHT22;10818;50.830;6.524;2023-04-23T00:09:31;11.50;99.90
21318;DHT22;10818;50.830;6.524;2023-04-23T00:14:32;11.30;99.90
21318;DHT22;10818;50.830;6.524;2023-04-23T00:19:32;11.20;99.90
21318;DHT22;10818;50.830;6.524;2023-04-23T00:24:33;11.20;99.90
21318;DHT22;10818;50.830;6.524;2023-04-23T00:29:35;11.10;99.90
21318;DHT22;10818;50.830;6.524;2023-04-23T00:34:36;11.10;99.90
21318;DHT22;10818;50.830;6.524;2023-04-23T00:39:36;11.20;99.90
21318;DHT22;10818;50.830;6.524;2023-04-23T00:44:38;11.10;99.90
21318;DHT22;10818;50.830;6.524;2023-04-23T00:49:38;11.10;99.90
21318;DHT22;10818;50.830;6.524;2023-04-23T00:54:39;11.00;99.90
21318;DHT22;10818;50.830;6.524;2023-04-23T00:59:40;10.90;99.90
21318;DHT22;10818;50.830;6.524;2023-04-23T01:04:42;10.90;99.90
21318;DHT22;10818;50.830;6.524;2023-04-23T01:09:43;10.80;99.90
21318;DHT22;10818;50.830;6.524;2023-04-23T01:14:43;10.80;99.90
21318;DHT22;10818;50.830;6.524;2023-04-23T01:19:44;10.70;99.90
21318;DHT22;10818;50.830;6.524;2023-04-23T01:24:44;10.70;99.90
21318;DHT22;10818;50.830;6.524;2023-04-23T01:29:46;10.60;99.90
21318;DHT22;10818;50.830;6.524;2023-04-23T01:34:46;10.60;99.90
21318;DHT22;10818;50.830;6.524;2023-04-23T01:39:47;10.70;99.90
21318;DHT22;10818;50.830;6.524;2023-04-23T01:44:47;10.60;99.90
21318;DHT22;10818;50.830;6.524;2023-04-23T01:49:48;10.40;99.90
21318;DHT22;10818;50.830;6.524;2023-04-23T01:54:48;10.30;99.90
21318;DHT22;10818;50.830;6.524;2023-04-23T01:59:49;10.30;99.90
21318;DHT22;10818;50.830;6.524;2023-04-23T02:04:50;10.30;99.90
21318;DHT22;10818;50.830;6.524;2023-04-23T02:09:52;10.20;99.90
21318;DHT22;10818;50.830;6.524;2023-04-23T02:14:52;10.10;99.90
21318;DHT22;10818;50.830;6.524;2023-04-23T02:19:53;10.10;99.90
21318;DHT22;10818;50.830;6.524;2023-04-23T02:24:55;10.10;99.90
21318;DHT22;10818;50.830;6.524;2023-04-23T02:29:55;10.10;99.90
21318;DHT22;10818;50.830;6.524;2023-04-23T02:34:56;10.10;99.90
21318;DHT22;10818;50.830;6.524;2023-04-23T02:39:58;10.00;99.90
21318;DHT22;10818;50.830;6.524;2023-04-23T02:44:58;9.70;99.90
21318;DHT22;10818;50.830;6.524;2023-04-23T02:49:59;9.70;99.90
21318;DHT22;10818;50.830;6.524;2023-04-23T02:55:02;9.90;99.90
21318;DHT22;10818;50.830;6.524;2023-04-23T03:00:03;9.90;99.90
21318;DHT22;10818;50.830;6.524;2023-04-23T03:05:06;9.80;99.90
21318;DHT22;10818;50.830;6.524;2023-04-23T03:10:07;9.90;99.90
21318;DHT22;10818;50.830;6.524;2023-04-23T03:15:08;10.00;99.90
21318;DHT22;10818;50.830;6.524;2023-04-23T03:20:08;10.20;99.90
21318;DHT22;10818;50.830;6.524;2023-04-23T03:25:10;10.30;99.90
21318;DHT22;10818;50.830;6.524;2023-04-23T03:30:11;10.40;99.90
21318;DHT22;10818;50.830;6.524;2023-04-23T03:35:11;10.60;99.90
21318;DHT22;10818;50.830;6.524;2023-04-23T03:40:12;10.80;99.90
21318;DHT22;10818;50.830;6.524;2023-04-23T03:45:13;11.00;99.90
21318;DHT22;10818;50.830;6.524;2023-04-23T03:50:18;11.10;99.90
21318;DHT22;10818;50.830;6.524;2023-04-23T03:55:18;11.30;99.90
21318;DHT22;10818;50.830;6.524;2023-04-23T04:00:20;11.40;99.90
21318;DHT22;10818;50.830;6.524;2023-04-23T04:05:21;11.50;99.90
21318;DHT22;10818;50.830;6.524;2023-04-23T04:10:21;11.60;99.90
21318;DHT22;10818;50.830;6.524;2023-04-23T04:15:22;11.60;99.90
21318;DHT22;10818;50.830;6.524;2023-04-23T04:20:22;11.70;99.90
21318;DHT22;10818;50.830;6.524;2023-04-23T04:25:23;11.70;99.90
21318;DHT22;10818;50.830;6.524;2023-04-23T04:30:26;11.80;99.90
21318;DHT22;10818;50.830;6.524;2023-04-23T04:35:32;11.80;99.90
21318;DHT22;10818;50.830;6.524;2023-04-23T04:40:38;11.90;99.90
21318;DHT22;10818;50.830;6.524;2023-04-23T04:45:41;12.00;99.90
21318;DHT22;10818;50.830;6.524;2023-04-23T04:50:41;12.00;99.90
21318;DHT22;10818;50.830;6.524;2023-04-23T04:55:45;12.00;99.90
21318;DHT22;10818;50.830;6.524;2023-04-23T05:00:46;12.20;99.90
21318;DHT22;10818;50.830;6.524;2023-04-23T05:05:51;12.20;99.90
21318;DHT22;10818;50.830;6.524;2023-04-23T05:10:54;12.20;99.90
21318;DHT22;10818;50.830;6.524;2023-04-23T05:15:55;12.30;99.90
21318;DHT22;10818;50.830;6.524;2023-04-23T05:20:57;12.20;99.90
21318;DHT22;10818;50.830;6.524;2023-04-23T05:25:58;12.40;99.90
21318;DHT22;10818;50.830;6.524;2023-04-23T05:30:58;12.60;99.90
21318;DHT22;10818;50.830;6.524;2023-04-23T05:35:59;12.60;99.90
21318;DHT22;10818;50.830;6.524;2023-04-23T05:41:00;12.80;99.90
21318;DHT22;10818;50.830;6.524;2023-04-23T05:46:00;12.80;99.90
21318;DHT22;10818;50.830;6.524;2023-04-23T05:51:03;12.80;99.90
21318;DHT22;10818;50.830;6.524;2023-04-23T05:56:04;13.00;99.90
21318;DHT22;10818;50.830;6.524;2023-04-23T06:01:04;13.10;99.90
21318;DHT22;10818;50.830;6.524;2023-04-23T06:06:05;13.40;99.90
21318;DHT22;10818;50.830;6.524;2023-04-23T06:11:05;13.40;99.90
21318;DHT22;10818;50.830;6.524;2023-04-23T06:16:06;13.60;99.90
21318;DHT22;10818;50.830;6.524;2023-04-23T06:21:07;13.80;99.90
21318;DHT22;10818;50.830;6.524;2023-04-23T06:26:07;14.10;99.90
21318;DHT22;10818;50.830;6.524;2023-04-23T06:31:08;14.20;99.90
21318;DHT22;10818;50.830;6.524;2023-04-23T06:36:08;14.10;99.90
21318;DHT22;10818;50.830;6.524;2023-04-23T06:41:10;14.20;99.90
21318;DHT22;10818;50.830;6.524;2023-04-23T06:46:10;14.30;99.90
21318;DHT22;10818;50.830;6.524;2023-04-23T06:51:11;14.50;99.90
21318;DHT22;10818;50.830;6.524;2023-04-23T06:56:11;14.90;99.90
21318;DHT22;10818;50.830;6.524;2023-04-23T07:01:12;15.50;99.90
21318;DHT22;10818;50.830;6.524;2023-04-23T07:06:12;16.70;99.90
21318;DHT22;10818;50.830;6.524;2023-04-23T07:11:13;17.90;99.90
21318;DHT22;10818;50.830;6.524;2023-04-23T07:16:13;18.60;99.90
21318;DHT22;10818;50.830;6.524;2023-04-23T07:21:14;19.40;99.90
21318;DHT22;10818;50.830;6.524;2023-04-23T07:26:14;20.00;99.90
21318;DHT22;10818;50.830;6.524;2023-04-23T07:31:16;22.30;99.90
21318;DHT22;10818;50.830;6.524;2023-04-23T07:36:16;22.40;99.90
21318;DHT22;10818;50.830;6.524;2023-04-23T07:41:17;24.00;99.90
21318;DHT22;10818;50.830;6.524;2023-04-23T07:46:17;27.10;99.90
21318;DHT22;10818;50.830;6.524;2023-04-23T07:51:19;30.90;94.40
21318;DHT22;10818;50.830;6.524;2023-04-23T07:56:21;33.00;81.70
21318;DHT22;10818;50.830;6.524;2023-04-23T08:01:23;35.80;64.60
21318;DHT22;10818;50.830;6.524;2023-04-23T08:06:25;34.40;62.10
21318;DHT22;10818;50.830;6.524;2023-04-23T08:11:29;34.70;60.80
21318;DHT22;10818;50.830;6.524;2023-04-23T08:16:29;37.60;55.10
21318;DHT22;10818;50.830;6.524;2023-04-23T08:21:31;36.90;53.60
21318;DHT22;10818;50.830;6.524;2023-04-23T08:26:31;34.60;53.70
21318;DHT22;10818;50.830;6.524;2023-04-23T08:31:32;35.60;52.00
21318;DHT22;10818;50.830;6.524;2023-04-23T08:36:32;34.40;52.90
21318;DHT22;10818;50.830;6.524;2023-04-23T08:41:34;32.30;55.20
21318;DHT22;10818;50.830;6.524;2023-04-23T08:46:38;27.40;62.50
21318;DHT22;10818;50.830;6.524;2023-04-23T08:51:48;25.30;68.50
21318;DHT22;10818;50.830;6.524;2023-04-23T08:56:49;24.20;71.70
21318;DHT22;10818;50.830;6.524;2023-04-23T09:01:50;22.80;76.30
21318;DHT22;10818;50.830;6.524;2023-04-23T09:06:51;22.00;79.80
21318;DHT22;10818;50.830;6.524;2023-04-23T09:11:51;22.00;82.00
21318;DHT22;10818;50.830;6.524;2023-04-23T09:16:52;22.10;82.90
21318;DHT22;10818;50.830;6.524;2023-04-23T09:21:53;22.40;86.00
21318;DHT22;10818;50.830;6.524;2023-04-23T09:26:53;22.50;86.50
21318;DHT22;10818;50.830;6.524;2023-04-23T09:31:54;21.80;85.80
21318;DHT22;10818;50.830;6.524;2023-04-23T09:36:55;21.30;87.90
21318;DHT22;10818;50.830;6.524;2023-04-23T09:41:55;21.10;90.00
21318;DHT22;10818;50.830;6.524;2023-04-23T09:47:08;21.40;89.60
21318;DHT22;10818;50.830;6.524;2023-04-23T09:52:09;21.40;89.40
21318;DHT22;10818;50.830;6.524;2023-04-23T09:57:10;21.00;89.50
21318;DHT22;10818;50.830;6.524;2023-04-23T10:02:11;20.80;90.60
21318;DHT22;10818;50.830;6.524;2023-04-23T10:07:12;20.80;90.30
21318;DHT22;10818;50.830;6.524;2023-04-23T10:12:15;21.00;90.60
21318;DHT22;10818;50.830;6.524;2023-04-23T10:17:16;20.40;90.40
21318;DHT22;10818;50.830;6.524;2023-04-23T10:22:17;20.10;90.90
21318;DHT22;10818;50.830;6.524;2023-04-23T10:27:18;20.10;90.50
21318;DHT22;10818;50.830;6.524;2023-04-23T10:32:20;19.90;90.10
21318;DHT22;10818;50.830;6.524;2023-04-23T10:37:21;19.60;90.20
21318;DHT22;10818;50.830;6.524;2023-04-23T10:42:22;19.70;89.50
21318;DHT22;10818;50.830;6.524;2023-04-23T10:47:22;20.40;88.50
21318;DHT22;10818;50.830;6.524;2023-04-23T10:52:23;20.80;88.00
21318;DHT22;10818;50.830;6.524;2023-04-23T10:57:23;20.40;89.10
21318;DHT22;10818;50.830;6.524;2023-04-23T11:02:24;20.10;88.20
21318;DHT22;10818;50.830;6.524;2023-04-23T11:07:29;20.30;88.40
21318;DHT22;10818;50.830;6.524;2023-04-23T11:12:31;19.90;88.90
21318;DHT22;10818;50.830;6.524;2023-04-23T11:22:39;20.20;90.00
21318;DHT22;10818;50.830;6.524;2023-04-23T11:27:42;19.90;87.30
21318;DHT22;10818;50.830;6.524;2023-04-23T11:32:46;20.10;88.30
21318;DHT22;10818;50.830;6.524;2023-04-23T11:37:48;20.30;89.60
21318;DHT22;10818;50.830;6.524;2023-04-23T11:42:49;20.30;86.00
21318;DHT22;10818;50.830;6.524;2023-04-23T11:47:51;20.60;85.40
21318;DHT22;10818;50.830;6.524;2023-04-23T11:52:55;20.90;84.60
21318;DHT22;10818;50.830;6.524;2023-04-23T11:57:56;21.40;87.50
21318;DHT22;10818;50.830;6.524;2023-04-23T12:02:58;21.30;89.30
21318;DHT22;10818;50.830;6.524;2023-04-23T12:08:05;21.40;86.50
21318;DHT22;10818;50.830;6.524;2023-04-23T12:13:06;21.00;87.60
21318;DHT22;10818;50.830;6.524;2023-04-23T12:18:07;20.30;86.00
21318;DHT22;10818;50.830;6.524;2023-04-23T12:23:08;20.60;90.40
21318;DHT22;10818;50.830;6.524;2023-04-23T12:28:08;21.00;88.50
21318;DHT22;10818;50.830;6.524;2023-04-23T12:33:09;21.10;86.80
21318;DHT22;10818;50.830;6.524;2023-04-23T12:38:23;21.20;87.20
21318;DHT22;10818;50.830;6.524;2023-04-23T12:43:24;21.00;84.40
21318;DHT22;10818;50.830;6.524;2023-04-23T12:48:25;21.10;85.00
21318;DHT22;10818;50.830;6.524;2023-04-23T12:53:25;20.90;84.50
21318;DHT22;10818;50.830;6.524;2023-04-23T12:58:26;20.80;84.20
21318;DHT22;10818;50.830;6.524;2023-04-23T13:03:27;20.50;83.60
21318;DHT22;10818;50.830;6.524;2023-04-23T13:08:27;20.60;85.60
21318;DHT22;10818;50.830;6.524;2023-04-23T13:13:28;20.50;87.60
21318;DHT22;10818;50.830;6.524;2023-04-23T13:18:28;20.90;88.90
21318;DHT22;10818;50.830;6.524;2023-04-23T13:23:29;20.70;86.00
21318;DHT22;10818;50.830;6.524;2023-04-23T13:28:29;20.10;88.90
21318;DHT22;10818;50.830;6.524;2023-04-23T13:33:30;19.70;90.00
21318;DHT22;10818;50.830;6.524;2023-04-23T13:38:30;19.50;90.80
21318;DHT22;10818;50.830;6.524;2023-04-23T13:43:31;19.00;92.40
21318;DHT22;10818;50.830;6.524;2023-04-23T13:48:31;19.20;92.80
21318;DHT22;10818;50.830;6.524;2023-04-23T13:53:32;19.50;94.10
21318;DHT22;10818;50.830;6.524;2023-04-23T13:58:33;19.40;93.90
21318;DHT22;10818;50.830;6.524;2023-04-23T14:03:33;19.20;93.70
21318;DHT22;10818;50.830;6.524;2023-04-23T14:08:34;19.20;93.10
21318;DHT22;10818;50.830;6.524;2023-04-23T14:13:36;19.50;93.70
21318;DHT22;10818;50.830;6.524;2023-04-23T14:18:36;19.10;93.80
21318;DHT22;10818;50.830;6.524;2023-04-23T14:23:50;18.70;95.10
21318;DHT22;10818;50.830;6.524;2023-04-23T14:28:51;18.60;97.10
21318;DHT22;10818;50.830;6.524;2023-04-23T14:33:52;18.30;97.80
21318;DHT22;10818;50.830;6.524;2023-04-23T14:38:55;18.10;97.70
21318;DHT22;10818;50.830;6.524;2023-04-23T14:44:00;17.70;99.90
21318;DHT22;10818;50.830;6.524;2023-04-23T14:49:01;17.60;99.90
21318;DHT22;10818;50.830;6.524;2023-04-23T14:54:01;17.30;99.90
21318;DHT22;10818;50.830;6.524;2023-04-23T14:59:02;16.70;99.90
21318;DHT22;10818;50.830;6.524;2023-04-23T15:04:03;16.40;99.90
21318;DHT22;10818;50.830;6.524;2023-04-23T15:09:04;16.40;99.90
21318;DHT22;10818;50.830;6.524;2023-04-23T15:14:07;16.40;99.90
21318;DHT22;10818;50.830;6.524;2023-04-23T15:19:15;16.40;99.90
21318;DHT22;10818;50.830;6.524;2023-04-23T15:24:19;16.40;99.90
21318;DHT22;10818;50.830;6.524;2023-04-23T15:29:19;16.30;99.90
21318;DHT22;10818;50.830;6.524;2023-04-23T15:34:20;16.20;99.90
21318;DHT22;10818;50.830;6.524;2023-04-23T15:39:20;16.20;99.90
21318;DHT22;10818;50.830;6.524;2023-04-23T15:44:21;16.30;99.90
21318;DHT22;10818;50.830;6.524;2023-04-23T15:49:22;15.90;99.90
21318;DHT22;10818;50.830;6.524;2023-04-23T15:54:22;15.40;99.90
21318;DHT22;10818;50.830;6.524;2023-04-23T15:59:23;15.40;99.90
21318;DHT22;10818;50.830;6.524;2023-04-23T16:04:24;14.80;99.90
21318;DHT22;10818;50.830;6.524;2023-04-23T16:09:24;14.70;99.90
21318;DHT22;10818;50.830;6.524;2023-04-23T16:14:25;14.50;99.90
21318;DHT22;10818;50.830;6.524;2023-04-23T16:19:26;14.20;99.90
21318;DHT22;10818;50.830;6.524;2023-04-23T16:24:27;14.10;99.90
21318;DHT22;10818;50.830;6.524;2023-04-23T16:29:28;14.00;99.90
21318;DHT22;10818;50.830;6.524;2023-04-23T16:34:28;14.10;99.90
21318;DHT22;10818;50.830;6.524;2023-04-23T16:39:29;14.20;99.90
21318;DHT22;10818;50.830;6.524;2023-04-23T16:44:30;14.20;99.90
21318;DHT22;10818;50.830;6.524;2023-04-23T16:49:30;14.20;99.90
21318;DHT22;10818;50.830;6.524;2023-04-23T16:54:31;14.20;99.90
21318;DHT22;10818;50.830;6.524;2023-04-23T16:59:33;14.00;99.90
21318;DHT22;10818;50.830;6.524;2023-04-23T17:04:33;13.90;99.90
21318;DHT22;10818;50.830;6.524;2023-04-23T17:09:34;13.80;99.90
21318;DHT22;10818;50.830;6.524;2023-04-23T17:14:35;14.00;99.90
21318;DHT22;10818;50.830;6.524;2023-04-23T17:19:35;14.00;99.90
21318;DHT22;10818;50.830;6.524;2023-04-23T17:24:35;13.90;99.90
21318;DHT22;10818;50.830;6.524;2023-04-23T17:29:36;13.90;99.90
21318;DHT22;10818;50.830;6.524;2023-04-23T17:34:37;13.90;99.90
21318;DHT22;10818;50.830;6.524;2023-04-23T17:39:37;13.80;99.90
21318;DHT22;10818;50.830;6.524;2023-04-23T17:44:38;14.00;99.90
21318;DHT22;10818;50.830;6.524;2023-04-23T17:49:38;14.00;99.90
21318;DHT22;10818;50.830;6.524;2023-04-23T17:54:39;13.80;99.90
21318;DHT22;10818;50.830;6.524;2023-04-23T17:59:39;13.70;99.90
21318;DHT22;10818;50.830;6.524;2023-04-23T18:04:40;13.90;99.90
21318;DHT22;10818;50.830;6.524;2023-04-23T18:09:40;13.90;99.90
21318;DHT22;10818;50.830;6.524;2023-04-23T18:14:41;13.90;99.90
21318;DHT22;10818;50.830;6.524;2023-04-23T18:19:41;13.90;99.90
21318;DHT22;10818;50.830;6.524;2023-04-23T18:24:42;13.80;99.90
21318;DHT22;10818;50.830;6.524;2023-04-23T18:29:43;13.80;99.90
21318;DHT22;10818;50.830;6.524;2023-04-23T18:34:44;13.50;99.90
21318;DHT22;10818;50.830;6.524;2023-04-23T18:39:44;13.80;99.90
21318;DHT22;10818;50.830;6.524;2023-04-23T18:44:45;13.60;99.90
21318;DHT22;10818;50.830;6.524;2023-04-23T18:49:51;13.50;99.90
21318;DHT22;10818;50.830;6.524;2023-04-23T18:54:52;13.40;99.90
21318;DHT22;10818;50.830;6.524;2023-04-23T18:59:52;13.30;99.90
21318;DHT22;10818;50.830;6.524;2023-04-23T19:04:52;13.00;99.90
21318;DHT22;10818;50.830;6.524;2023-04-23T19:09:53;12.80;99.90
21318;DHT22;10818;50.830;6.524;2023-04-23T19:14:54;12.70;99.90
21318;DHT22;10818;50.830;6.524;2023-04-23T19:19:54;12.50;99.90
21318;DHT22;10818;50.830;6.524;2023-04-23T19:24:55;12.40;99.90
21318;DHT22;10818;50.830;6.524;2023-04-23T19:29:55;12.40;99.90
21318;DHT22;10818;50.830;6.524;2023-04-23T19:34:56;12.50;99.90
21318;DHT22;10818;50.830;6.524;2023-04-23T19:39:57;12.50;99.90
21318;DHT22;10818;50.830;6.524;2023-04-23T19:44:57;12.40;99.90
21318;DHT22;10818;50.830;6.524;2023-04-23T19:49:58;12.40;99.90
21318;DHT22;10818;50.830;6.524;2023-04-23T19:54:58;12.40;99.90
21318;DHT22;10818;50.830;6.524;2023-04-23T19:59:58;12.40;99.90
21318;DHT22;10818;50.830;6.524;2023-04-23T20:04:59;12.30;99.90
21318;DHT22;10818;50.830;6.524;2023-04-23T20:09:59;12.20;99.90
21318;DHT22;10818;50.830;6.524;2023-04-23T20:15:00;12.20;99.90
21318;DHT22;10818;50.830;6.524;2023-04-23T20:20:01;12.30;99.90
21318;DHT22;10818;50.830;6.524;2023-04-23T20:25:02;12.30;99.90
21318;DHT22;10818;50.830;6.524;2023-04-23T20:30:03;12.30;99.90
21318;DHT22;10818;50.830;6.524;2023-04-23T20:35:04;12.40;99.90
21318;DHT22;10818;50.830;6.524;2023-04-23T20:40:05;12.40;99.90
21318;DHT22;10818;50.830;6.524;2023-04-23T20:45:07;12.50;99.90
21318;DHT22;10818;50.830;6.524;2023-04-23T20:50:07;12.50;99.90
21318;DHT22;10818;50.830;6.524;2023-04-23T20:55:08;12.40;99.90
21318;DHT22;10818;50.830;6.524;2023-04-23T21:00:09;12.30;99.90
21318;DHT22;10818;50.830;6.524;2023-04-23T21:05:13;12.40;99.90
21318;DHT22;10818;50.830;6.524;2023-04-23T21:10:13;12.40;99.90
21318;DHT22;10818;50.830;6.524;2023-04-23T21:15:14;12.40;99.90
21318;DHT22;10818;50.830;6.524;2023-04-23T21:20:15;12.30;99.90
21318;DHT22;10818;50.830;6.524;2023-04-23T21:25:16;12.40;99.90
21318;DHT22;10818;50.830;6.524;2023-04-23T21:30:51;12.40;99.90
21318;DHT22;10818;50.830;6.524;2023-04-23T21:35:43;12.40;99.90
21318;DHT22;10818;50.830;6.524;2023-04-23T21:40:44;12.50;99.90
21318;DHT22;10818;50.830;6.524;2023-04-23T21:45:45;12.50;99.90
21318;DHT22;10818;50.830;6.524;2023-04-23T21:50:45;12.40;99.90
21318;DHT22;10818;50.830;6.524;2023-04-23T21:55:47;12.30;99.90
21318;DHT22;10818;50.830;6.524;2023-04-23T22:00:47;12.20;99.90
21318;DHT22;10818;50.830;6.524;2023-04-23T22:05:48;12.10;99.90
21318;DHT22;10818;50.830;6.524;2023-04-23T22:10:48;12.00;99.90
21318;DHT22;10818;50.830;6.524;2023-04-23T22:15:49;11.90;99.90
21318;DHT22;10818;50.830;6.524;2023-04-23T22:20:49;11.90;99.90
21318;DHT22;10818;50.830;6.524;2023-04-23T22:25:50;12.00;99.90
21318;DHT22;10818;50.830;6.524;2023-04-23T22:30:50;12.10;99.90
21318;DHT22;10818;50.830;6.524;2023-04-23T22:35:51;12.10;99.90
21318;DHT22;10818;50.830;6.524;2023-04-23T22:40:51;12.00;99.90
21318;DHT22;10818;50.830;6.524;2023-04-23T22:45:52;11.80;99.90
21318;DHT22;10818;50.830;6.524;2023-04-23T22:50:52;11.80;99.90
21318;DHT22;10818;50.830;6.524;2023-04-23T22:55:53;11.80;99.90
21318;DHT22;10818;50.830;6.524;2023-04-23T23:00:53;11.70;99.90
21318;DHT22;10818;50.830;6.524;2023-04-23T23:05:54;11.80;99.90
21318;DHT22;10818;50.830;6.524;2023-04-23T23:10:55;11.60;99.90
21318;DHT22;10818;50.830;6.524;2023-04-23T23:15:55;11.70;99.90
21318;DHT22;10818;50.830;6.524;2023-04-23T23:20:59;11.60;99.90
21318;DHT22;10818;50.830;6.524;2023-04-23T23:26:00;11.40;99.90
21318;DHT22;10818;50.830;6.524;2023-04-23T23:31:00;11.30;99.90
21318;DHT22;10818;50.830;6.524;2023-04-23T23:36:01;11.40;99.90
21318;DHT22;10818;50.830;6.524;2023-04-23T23:41:01;11.50;99.90
21318;DHT22;10818;50.830;6.524;2023-04-23T23:46:02;11.50;99.90
21318;DHT22;10818;50.830;6.524;2023-04-23T23:51:03;11.50;99.90
21318;DHT22;10818;50.830;6.524;2023-04-23T23:56:03;11.60;99.90
